createdAt,value
2019-06-08T00:00:20.789Z,16.99
2019-06-08T00:02:50.037Z,16.87
2019-06-08T00:05:19.238Z,16.79
2019-06-08T00:07:48.354Z,16.56
2019-06-08T00:10:23.558Z,16.67
2019-06-08T00:12:49.881Z,16.62
2019-06-08T00:15:20.181Z,16.77
2019-06-08T00:17:49.475Z,16.78
2019-06-08T00:20:19.723Z,16.85
2019-06-08T00:22:48.916Z,16.92
2019-06-08T00:25:19.067Z,16.91
2019-06-08T00:27:48.604Z,16.80
2019-06-08T00:30:17.909Z,16.91
2019-06-08T00:32:47.082Z,17.06
2019-06-08T00:35:16.588Z,17.09
2019-06-08T00:37:45.655Z,17.16
2019-06-08T00:40:14.860Z,17.16
2019-06-08T00:42:43.921Z,17.17
2019-06-08T00:45:13.358Z,17.18
2019-06-08T00:47:47.952Z,17.19
2019-06-08T00:50:14.046Z,17.26
2019-06-08T00:52:43.245Z,17.26
2019-06-08T00:55:12.690Z,17.30
2019-06-08T00:57:41.813Z,17.16
2019-06-08T01:00:11.744Z,17.26
2019-06-08T01:02:41.159Z,17.28
2019-06-08T01:05:11.360Z,17.33
2019-06-08T01:07:40.503Z,17.30
2019-06-08T01:10:10.206Z,17.21
2019-06-08T01:12:39.418Z,17.18
2019-06-08T01:15:09.357Z,17.07
2019-06-08T01:17:38.557Z,17.12
2019-06-08T01:20:08.395Z,17.03
2019-06-08T01:22:37.588Z,16.95
2019-06-08T01:25:06.934Z,16.98
2019-06-08T01:27:36.065Z,17.01
2019-06-08T01:30:06.143Z,17.06
2019-06-08T01:32:35.283Z,17.11
2019-06-08T01:35:04.524Z,17.13
2019-06-08T01:37:33.647Z,17.01
2019-06-08T01:40:02.911Z,17.00
2019-06-08T01:42:32.139Z,17.05
2019-06-08T01:45:01.278Z,16.95
2019-06-08T01:47:30.403Z,16.93
2019-06-08T01:49:59.521Z,16.79
2019-06-08T01:52:28.891Z,16.89
2019-06-08T01:54:58.071Z,16.99
2019-06-08T01:57:27.265Z,16.96
2019-06-08T01:59:56.401Z,16.93
2019-06-08T02:02:25.901Z,16.91
2019-06-08T02:04:55.169Z,16.90
2019-06-08T02:07:24.287Z,17.01
2019-06-08T02:09:53.453Z,16.95
2019-06-08T02:12:22.614Z,16.96
2019-06-08T02:14:51.756Z,17.03
2019-06-08T02:17:20.960Z,17.05
2019-06-08T02:19:50.175Z,17.05
2019-06-08T02:22:19.437Z,17.06
2019-06-08T02:24:48.605Z,16.90
2019-06-08T02:27:17.751Z,16.95
2019-06-08T02:29:46.996Z,16.93
2019-06-08T02:32:16.170Z,16.96
2019-06-08T02:34:45.244Z,16.83
2019-06-08T02:37:14.422Z,16.74
2019-06-08T02:39:43.549Z,16.63
2019-06-08T02:42:12.657Z,16.70
2019-06-08T02:44:41.743Z,16.67
2019-06-08T02:47:10.856Z,16.68
2019-06-08T02:49:40.023Z,16.69
2019-06-08T02:52:10.340Z,16.56
2019-06-08T02:54:41.144Z,16.53
2019-06-08T02:57:11.930Z,16.43
2019-06-08T02:59:42.792Z,16.46
2019-06-08T03:02:13.405Z,16.52
2019-06-08T03:04:43.315Z,16.59
2019-06-08T03:07:15.576Z,16.64
2019-06-08T03:09:48.104Z,16.53
2019-06-08T03:12:20.634Z,16.44
2019-06-08T03:14:51.481Z,16.50
2019-06-08T03:17:20.571Z,16.50
2019-06-08T03:19:49.667Z,16.62
2019-06-08T03:22:18.931Z,16.65
2019-06-08T03:24:48.063Z,16.49
2019-06-08T03:27:17.208Z,16.57
2019-06-08T03:29:46.341Z,16.56
2019-06-08T03:32:15.448Z,16.54
2019-06-08T03:34:53.889Z,16.55
2019-06-08T03:37:15.510Z,16.59
2019-06-08T03:39:45.331Z,16.61
2019-06-08T03:42:14.793Z,16.53
2019-06-08T03:44:44.930Z,16.41
2019-06-08T03:47:14.202Z,16.23
2019-06-08T03:49:54.846Z,16.22
2019-06-08T03:52:14.146Z,16.14
2019-06-08T03:54:45.279Z,16.27
2019-06-08T03:57:14.242Z,16.24
2019-06-08T03:59:45.619Z,16.14
2019-06-08T04:02:14.194Z,16.09
2019-06-08T04:04:43.805Z,16.05
2019-06-08T04:07:13.013Z,16.06
2019-06-08T04:09:43.492Z,16.10
2019-06-08T04:12:12.751Z,16.05
2019-06-08T04:14:42.235Z,16.19
2019-06-08T04:17:12.778Z,16.11
2019-06-08T04:20:04.985Z,16.14
2019-06-08T04:22:12.832Z,16.12
2019-06-08T04:24:42.461Z,16.05
2019-06-08T04:27:12.923Z,16.17
2019-06-08T04:29:43.867Z,16.24
2019-06-08T04:32:12.988Z,16.19
2019-06-08T04:34:42.938Z,16.28
2019-06-08T04:37:15.699Z,16.28
2019-06-08T04:39:44.482Z,16.20
2019-06-08T04:42:13.860Z,16.27
2019-06-08T04:44:44.457Z,16.33
2019-06-08T04:47:13.706Z,16.39
2019-06-08T04:49:43.417Z,16.43
2019-06-08T04:52:13.671Z,16.47
2019-06-08T04:54:42.818Z,16.55
2019-06-08T04:57:11.933Z,16.50
2019-06-08T04:59:41.712Z,16.54
2019-06-08T05:02:11.931Z,16.54
2019-06-08T05:04:41.090Z,16.54
2019-06-08T05:07:10.224Z,16.57
2019-06-08T05:09:40.994Z,16.35
2019-06-08T05:12:10.259Z,16.46
2019-06-08T05:14:39.359Z,16.38
2019-06-08T05:17:08.589Z,16.39
2019-06-08T05:19:39.145Z,16.39
2019-06-08T05:22:08.326Z,16.31
2019-06-08T05:24:37.457Z,16.39
2019-06-08T05:27:06.588Z,16.38
2019-06-08T05:29:35.747Z,16.34
2019-06-08T05:32:05.168Z,16.25
2019-06-08T05:34:34.303Z,16.24
2019-06-08T05:37:03.463Z,16.27
2019-06-08T05:39:32.585Z,16.29
2019-06-08T05:42:01.793Z,16.28
2019-06-08T05:44:30.920Z,16.36
2019-06-08T05:47:00.199Z,16.43
2019-06-08T05:49:29.397Z,16.35
2019-06-08T05:51:58.530Z,16.48
2019-06-08T05:54:27.649Z,16.55
2019-06-08T05:56:56.795Z,16.64
2019-06-08T05:59:26.003Z,16.63
2019-06-08T06:01:55.269Z,16.69
2019-06-08T06:04:24.417Z,16.73
2019-06-08T06:06:53.583Z,16.78
2019-06-08T06:09:22.683Z,16.69
2019-06-08T06:11:51.833Z,16.76
2019-06-08T06:14:21.012Z,16.51
2019-06-08T06:16:51.351Z,16.48
2019-06-08T06:19:20.585Z,16.50
2019-06-08T06:21:49.694Z,16.62
2019-06-08T06:24:18.828Z,16.69
2019-06-08T06:26:47.929Z,16.78
2019-06-08T06:29:17.054Z,16.83
2019-06-08T06:31:46.234Z,16.76
2019-06-08T06:34:15.424Z,16.68
2019-06-08T06:36:45.841Z,16.64
2019-06-08T06:39:15.002Z,16.72
2019-06-08T06:41:44.168Z,16.81
2019-06-08T06:44:13.281Z,16.85
2019-06-08T06:46:42.395Z,16.97
2019-06-08T06:49:11.590Z,17.01
2019-06-08T06:51:40.809Z,17.04
2019-06-08T06:54:09.937Z,16.90
2019-06-08T06:56:39.063Z,16.88
2019-06-08T06:59:08.227Z,16.96
2019-06-08T07:01:37.387Z,16.86
2019-06-08T07:04:06.528Z,16.92
2019-06-08T07:06:35.738Z,16.94
2019-06-08T07:09:06.491Z,16.82
2019-06-08T07:11:35.757Z,16.65
2019-06-08T07:14:04.855Z,16.69
2019-06-08T07:16:33.998Z,16.73
2019-06-08T07:19:03.350Z,16.86
2019-06-08T07:21:41.397Z,16.80
2019-06-08T07:24:03.355Z,16.75
2019-06-08T07:26:32.466Z,16.74
2019-06-08T07:29:01.710Z,16.80
2019-06-08T07:31:30.959Z,16.83
2019-06-08T07:34:00.197Z,16.81
2019-06-08T07:36:29.342Z,16.80
2019-06-08T07:38:59.618Z,16.78
2019-06-08T07:41:28.804Z,16.85
2019-06-08T07:43:58.513Z,16.82
2019-06-08T07:46:27.730Z,16.76
2019-06-08T07:48:56.927Z,16.72
2019-06-08T07:51:26.058Z,16.78
2019-06-08T07:53:55.765Z,16.84
2019-06-08T07:56:25.043Z,16.83
2019-06-08T07:58:55.025Z,17.02
2019-06-08T08:01:35.934Z,17.19
2019-06-08T08:03:56.310Z,17.35
2019-06-08T08:06:25.602Z,17.46
2019-06-08T08:08:54.929Z,17.54
2019-06-08T08:11:24.189Z,17.44
2019-06-08T08:13:54.744Z,17.47
2019-06-08T08:16:23.979Z,17.40
2019-06-08T08:18:53.428Z,17.38
2019-06-08T08:21:26.194Z,17.47
2019-06-08T08:23:55.181Z,17.44
2019-06-08T08:26:27.131Z,17.41
2019-06-08T08:28:59.709Z,17.48
2019-06-08T08:31:27.849Z,17.58
2019-06-08T08:33:59.707Z,17.59
2019-06-08T08:36:29.435Z,17.37
2019-06-08T08:39:01.021Z,17.42
2019-06-08T08:41:29.921Z,17.44
2019-06-08T08:44:04.170Z,17.27
2019-06-08T08:46:30.053Z,17.34
2019-06-08T08:49:08.920Z,17.35
2019-06-08T08:51:30.991Z,17.41
2019-06-08T08:54:04.799Z,17.41
2019-06-08T08:56:31.016Z,17.43
2019-06-08T08:59:01.660Z,17.28
2019-06-08T09:01:31.134Z,17.34
2019-06-08T09:04:03.725Z,17.38
2019-06-08T09:06:31.235Z,17.37
2019-06-08T09:09:03.238Z,17.33
2019-06-08T09:11:31.327Z,17.58
2019-06-08T09:14:05.261Z,17.56
2019-06-08T09:16:31.492Z,17.77
2019-06-08T09:19:02.893Z,17.76
2019-06-08T09:21:31.752Z,17.90
2019-06-08T09:24:03.858Z,17.96
2019-06-08T09:26:31.778Z,18.09
2019-06-08T09:29:03.333Z,18.01
2019-06-08T09:31:31.812Z,18.05
2019-06-08T09:34:09.405Z,18.16
2019-06-08T09:36:31.928Z,18.08
2019-06-08T09:39:03.109Z,18.25
2019-06-08T09:41:32.125Z,18.27
2019-06-08T09:44:04.460Z,18.49
2019-06-08T09:46:32.221Z,18.57
2019-06-08T09:49:07.618Z,18.54
2019-06-08T09:51:32.254Z,18.75
2019-06-08T09:54:05.668Z,18.77
2019-06-08T09:56:32.261Z,18.71
2019-06-08T09:59:04.139Z,18.65
2019-06-08T10:01:32.252Z,18.28
2019-06-08T10:04:02.813Z,18.55
2019-06-08T10:06:32.311Z,18.44
2019-06-08T10:09:02.772Z,18.63
2019-06-08T10:11:32.105Z,18.51
2019-06-08T10:14:04.729Z,18.54
2019-06-08T10:16:32.224Z,18.62
2019-06-08T10:19:03.921Z,18.41
2019-06-08T10:21:32.897Z,18.52
2019-06-08T10:24:04.718Z,18.48
2019-06-08T10:26:33.445Z,18.41
2019-06-08T10:29:05.153Z,18.54
2019-06-08T10:31:39.806Z,18.80
2019-06-08T10:34:06.066Z,18.82
2019-06-08T10:36:35.325Z,18.97
2019-06-08T10:39:07.284Z,18.95
2019-06-08T10:41:38.690Z,19.13
2019-06-08T10:44:08.583Z,19.23
2019-06-08T10:46:40.654Z,19.39
2019-06-08T10:49:13.991Z,19.37
2019-06-08T10:51:41.120Z,19.47
2019-06-08T10:54:11.435Z,19.44
2019-06-08T10:56:40.747Z,19.52
2019-06-08T10:59:12.259Z,19.70
2019-06-08T11:01:40.959Z,19.87
2019-06-08T11:04:10.069Z,19.70
2019-06-08T11:06:40.353Z,19.82
2019-06-08T11:09:13.215Z,19.90
2019-06-08T11:11:41.021Z,20.02
2019-06-08T11:14:12.754Z,19.97
2019-06-08T11:16:41.099Z,20.19
2019-06-08T11:19:12.986Z,20.07
2019-06-08T11:21:41.162Z,20.03
2019-06-08T11:24:21.581Z,20.07
2019-06-08T11:26:41.443Z,19.95
2019-06-08T11:29:13.687Z,19.80
2019-06-08T11:31:41.491Z,19.85
2019-06-08T11:34:10.822Z,20.01
2019-06-08T11:36:39.968Z,20.09
2019-06-08T11:39:12.547Z,20.17
2019-06-08T11:41:40.160Z,20.27
2019-06-08T11:44:12.412Z,20.44
2019-06-08T11:46:42.534Z,20.49
2019-06-08T11:49:14.494Z,20.43
2019-06-08T11:51:41.849Z,20.36
2019-06-08T11:54:27.341Z,20.52
2019-06-08T11:56:42.265Z,20.78
2019-06-08T11:59:14.343Z,20.91
2019-06-08T12:01:42.899Z,21.15
2019-06-08T12:04:12.048Z,21.18
2019-06-08T12:06:41.204Z,21.15
2019-06-08T12:09:12.280Z,21.25
2019-06-08T12:11:41.300Z,21.17
2019-06-08T12:14:11.449Z,21.05
2019-06-08T12:16:41.379Z,21.08
2019-06-08T12:19:14.077Z,21.25
2019-06-08T12:21:41.560Z,21.10
2019-06-08T12:24:10.724Z,21.36
2019-06-08T12:26:39.886Z,21.29
2019-06-08T12:29:11.511Z,21.21
2019-06-08T12:31:39.891Z,21.35
2019-06-08T12:34:09.254Z,21.11
2019-06-08T12:36:38.383Z,21.06
2019-06-08T12:39:08.092Z,20.99
2019-06-08T12:41:37.726Z,20.87
2019-06-08T12:44:09.784Z,21.03
2019-06-08T12:46:41.310Z,21.28
2019-06-08T12:49:11.254Z,21.56
2019-06-08T12:51:39.873Z,21.82
2019-06-08T12:54:11.048Z,22.02
2019-06-08T12:56:39.876Z,22.25
2019-06-08T12:59:12.977Z,22.41
2019-06-08T13:01:40.002Z,22.14
2019-06-08T13:04:09.553Z,21.88
2019-06-08T13:06:40.749Z,21.99
2019-06-08T13:09:11.618Z,21.94
2019-06-08T13:11:40.715Z,21.90
2019-06-08T13:14:11.294Z,22.13
2019-06-08T13:16:41.244Z,22.18
2019-06-08T13:19:12.549Z,22.25
2019-06-08T13:21:41.450Z,22.28
2019-06-08T13:24:11.371Z,22.17
2019-06-08T13:26:40.692Z,22.32
2019-06-08T13:29:11.011Z,22.55
2019-06-08T13:31:40.801Z,22.68
2019-06-08T13:34:11.091Z,22.66
2019-06-08T13:36:42.329Z,22.59
2019-06-08T13:39:12.128Z,22.47
2019-06-08T13:41:42.450Z,22.25
2019-06-08T13:44:11.649Z,22.39
2019-06-08T13:46:40.812Z,22.62
2019-06-08T13:49:09.958Z,22.74
2019-06-08T13:51:39.137Z,22.83
2019-06-08T13:54:08.659Z,22.85
2019-06-08T13:56:38.598Z,22.88
2019-06-08T13:59:08.124Z,22.91
2019-06-08T14:01:37.924Z,23.01
2019-06-08T14:04:08.957Z,23.19
2019-06-08T14:06:38.206Z,23.18
2019-06-08T14:09:08.300Z,23.25
2019-06-08T14:11:37.662Z,23.24
2019-06-08T14:14:08.540Z,23.37
2019-06-08T14:16:38.949Z,23.66
2019-06-08T14:19:08.679Z,24.04
2019-06-08T14:21:41.624Z,24.23
2019-06-08T14:24:08.652Z,24.28
2019-06-08T14:26:37.857Z,24.12
2019-06-08T14:29:08.328Z,24.14
2019-06-08T14:31:38.210Z,24.30
2019-06-08T14:34:10.012Z,24.56
2019-06-08T14:36:40.993Z,24.66
2019-06-08T14:39:11.273Z,24.65
2019-06-08T14:41:40.776Z,24.57
2019-06-08T14:44:09.906Z,24.33
2019-06-08T14:46:41.433Z,24.13
2019-06-08T14:49:10.030Z,24.50
2019-06-08T14:51:52.140Z,24.56
2019-06-08T14:54:25.067Z,24.82
2019-06-08T14:56:52.611Z,24.76
2019-06-08T14:59:22.540Z,25.01
2019-06-08T15:01:52.850Z,25.00
2019-06-08T15:04:23.884Z,25.46
2019-06-08T15:06:52.882Z,25.76
2019-06-08T15:09:23.334Z,26.19
2019-06-08T15:11:52.582Z,26.56
2019-06-08T15:14:21.743Z,27.03
2019-06-08T15:16:50.939Z,26.61
2019-06-08T15:19:20.315Z,26.64
2019-06-08T15:21:49.684Z,26.35
2019-06-08T15:24:18.843Z,26.51
2019-06-08T15:26:50.943Z,26.55
2019-06-08T15:29:20.821Z,26.53
2019-06-08T15:31:50.034Z,26.74
2019-06-08T15:34:19.234Z,27.35
2019-06-08T15:36:48.377Z,28.06
2019-06-08T15:39:18.076Z,29.25
2019-06-08T15:41:48.832Z,30.44
2019-06-08T15:44:21.257Z,31.47
2019-06-08T15:46:48.999Z,32.21
2019-06-08T15:49:18.627Z,32.64
2019-06-08T15:51:48.250Z,32.35
2019-06-08T15:54:17.447Z,31.85
2019-06-08T15:56:51.777Z,30.86
2019-06-08T15:59:17.640Z,30.32
2019-06-08T16:01:46.847Z,28.57
2019-06-08T16:04:15.966Z,27.79
2019-06-08T16:06:45.123Z,27.64
2019-06-08T16:09:14.267Z,27.69
2019-06-08T16:11:43.434Z,27.27
2019-06-08T16:14:12.527Z,26.82
2019-06-08T16:16:41.719Z,27.20
2019-06-08T16:19:10.918Z,27.61
2019-06-08T16:21:40.039Z,27.80
2019-06-08T16:24:09.220Z,27.69
2019-06-08T16:26:52.289Z,27.69
2019-06-08T16:29:09.265Z,27.65
2019-06-08T16:31:39.396Z,27.35
2019-06-08T16:34:08.581Z,26.96
2019-06-08T16:36:37.713Z,26.58
2019-06-08T16:39:08.603Z,26.39
2019-06-08T16:41:37.879Z,26.18
2019-06-08T16:44:07.490Z,25.96
2019-06-08T16:46:36.799Z,25.39
2019-06-08T16:49:06.120Z,25.29
2019-06-08T16:51:35.774Z,25.38
2019-06-08T16:54:05.063Z,25.51
2019-06-08T16:56:34.341Z,25.51
2019-06-08T16:59:03.599Z,25.60
2019-06-08T17:01:33.009Z,25.55
2019-06-08T17:04:02.212Z,25.33
2019-06-08T17:06:31.366Z,25.28
2019-06-08T17:09:00.545Z,25.28
2019-06-08T17:11:29.762Z,24.85
2019-06-08T17:13:58.909Z,24.85
2019-06-08T17:16:28.083Z,24.31
2019-06-08T17:18:57.248Z,24.29
2019-06-08T17:21:26.472Z,24.34
2019-06-08T17:23:55.705Z,24.23
2019-06-08T17:26:24.862Z,24.34
2019-06-08T17:28:54.186Z,24.13
2019-06-08T17:31:23.437Z,24.08
2019-06-08T17:33:52.654Z,24.02
2019-06-08T17:36:21.779Z,24.07
2019-06-08T17:38:51.071Z,23.91
2019-06-08T17:41:20.275Z,23.88
2019-06-08T17:43:50.906Z,23.92
2019-06-08T17:46:20.094Z,23.87
2019-06-08T17:48:49.322Z,23.90
2019-06-08T17:51:18.462Z,23.92
2019-06-08T17:53:47.616Z,23.87
2019-06-08T17:56:16.765Z,23.82
2019-06-08T17:58:45.975Z,23.81
2019-06-08T18:01:15.134Z,23.82
2019-06-08T18:03:44.714Z,23.76
2019-06-08T18:06:13.864Z,23.71
2019-06-08T18:08:44.004Z,23.67
2019-06-08T18:11:13.970Z,23.58
2019-06-08T18:13:45.336Z,23.40
2019-06-08T18:16:14.242Z,23.33
2019-06-08T18:18:44.274Z,23.23
2019-06-08T18:21:14.322Z,23.18
2019-06-08T18:23:44.130Z,23.15
2019-06-08T18:26:14.417Z,23.10
2019-06-08T18:28:44.118Z,23.11
2019-06-08T18:31:14.708Z,23.03
2019-06-08T18:33:45.704Z,22.95
2019-06-08T18:36:16.988Z,22.88
2019-06-08T18:38:48.377Z,22.79
2019-06-08T18:41:17.702Z,22.70
2019-06-08T18:43:49.554Z,22.68
2019-06-08T18:46:18.172Z,22.61
2019-06-08T18:48:49.237Z,22.55
2019-06-08T18:51:18.415Z,22.52
2019-06-08T18:54:06.809Z,22.48
2019-06-08T18:56:18.502Z,22.39
2019-06-08T18:58:51.562Z,22.33
2019-06-08T19:01:22.905Z,22.28
2019-06-08T19:03:52.296Z,22.21
2019-06-08T19:06:20.620Z,22.13
2019-06-08T19:08:51.006Z,22.02
2019-06-08T19:11:20.299Z,21.90
2019-06-08T19:13:52.464Z,21.78
2019-06-08T19:16:22.763Z,21.71
2019-06-08T19:18:52.787Z,21.63
2019-06-08T19:21:22.242Z,21.49
2019-06-08T19:23:51.469Z,21.45
2019-06-08T19:26:20.778Z,21.37
2019-06-08T19:28:53.995Z,21.32
2019-06-08T19:31:22.414Z,21.23
2019-06-08T19:33:53.355Z,21.13
2019-06-08T19:36:22.521Z,20.99
2019-06-08T19:38:54.499Z,20.99
2019-06-08T19:41:22.694Z,20.93
2019-06-08T19:43:54.637Z,20.86
2019-06-08T19:46:22.994Z,20.78
2019-06-08T19:48:54.832Z,20.58
2019-06-08T19:51:23.636Z,20.58
2019-06-08T19:53:54.979Z,20.52
2019-06-08T19:56:23.807Z,20.46
2019-06-08T19:59:01.729Z,20.42
2019-06-08T20:01:23.940Z,20.35
2019-06-08T20:03:53.352Z,20.30
2019-06-08T20:06:22.464Z,20.21
2019-06-08T20:08:51.718Z,20.14
2019-06-08T20:11:20.908Z,20.07
2019-06-08T20:13:51.526Z,19.96
2019-06-08T20:16:21.265Z,19.88
2019-06-08T20:18:51.713Z,19.85
2019-06-08T20:21:21.472Z,19.85
2019-06-08T20:23:50.923Z,19.77
2019-06-08T20:26:20.205Z,19.69
2019-06-08T20:28:52.526Z,19.59
2019-06-08T20:31:22.102Z,19.57
2019-06-08T20:33:52.190Z,19.53
2019-06-08T20:36:21.494Z,19.46
2019-06-08T20:38:50.955Z,19.38
2019-06-08T20:41:20.350Z,19.31
2019-06-08T20:43:51.925Z,19.21
2019-06-08T20:46:20.524Z,19.18
2019-06-08T20:48:51.321Z,19.14
2019-06-08T20:51:21.059Z,19.10
2019-06-08T20:53:50.924Z,19.07
2019-06-08T20:56:21.084Z,19.01
2019-06-08T20:58:51.380Z,19.01
2019-06-08T21:01:21.258Z,18.97
2019-06-08T21:03:51.579Z,18.95
2019-06-08T21:06:21.421Z,18.87
2019-06-08T21:08:51.914Z,18.83
2019-06-08T21:11:21.596Z,18.78
2019-06-08T21:13:52.505Z,18.74
2019-06-08T21:16:21.791Z,18.74
2019-06-08T21:18:51.134Z,18.70
2019-06-08T21:21:20.268Z,18.64
2019-06-08T21:23:53.005Z,18.58
2019-06-08T21:26:20.630Z,18.50
2019-06-08T21:28:54.125Z,18.40
2019-06-08T21:31:22.874Z,18.28
2019-06-08T21:33:53.712Z,18.28
2019-06-08T21:36:23.091Z,18.28
2019-06-08T21:38:55.372Z,18.20
2019-06-08T21:41:23.239Z,18.17
2019-06-08T21:43:54.770Z,18.09
2019-06-08T21:46:23.341Z,18.05
2019-06-08T21:48:53.497Z,17.98
2019-06-08T21:51:26.186Z,17.94
2019-06-08T21:53:54.414Z,17.90
2019-06-08T21:56:23.565Z,17.88
2019-06-08T21:58:53.095Z,17.78
2019-06-08T22:01:28.305Z,17.74
2019-06-08T22:03:58.974Z,17.73
2019-06-08T22:06:27.737Z,17.74
2019-06-08T22:09:00.807Z,17.71
2019-06-08T22:11:27.735Z,17.69
2019-06-08T22:13:59.328Z,17.68
2019-06-08T22:16:27.813Z,17.70
2019-06-08T22:18:59.647Z,17.67
2019-06-08T22:21:28.166Z,17.70
2019-06-08T22:23:59.403Z,17.66
2019-06-08T22:26:28.341Z,17.64
2019-06-08T22:28:59.532Z,17.59
2019-06-08T22:31:28.871Z,17.55
2019-06-08T22:34:00.331Z,17.63
2019-06-08T22:36:28.974Z,17.69
2019-06-08T22:39:00.565Z,17.71
2019-06-08T22:41:29.091Z,17.70
2019-06-08T22:44:00.789Z,17.70
2019-06-08T22:46:29.178Z,17.70
2019-06-08T22:49:01.987Z,17.69
2019-06-08T22:51:29.193Z,17.73
2019-06-08T22:54:00.418Z,17.78
2019-06-08T22:56:29.319Z,17.77
2019-06-08T22:59:03.590Z,17.78
2019-06-08T23:01:29.340Z,17.79
2019-06-08T23:04:00.927Z,17.78
2019-06-08T23:06:29.568Z,17.74
2019-06-08T23:09:00.949Z,17.75
2019-06-08T23:11:29.606Z,17.70
2019-06-08T23:14:01.028Z,17.74
2019-06-08T23:16:30.689Z,17.75
2019-06-08T23:19:00.598Z,17.76
2019-06-08T23:21:32.083Z,17.79
2019-06-08T23:24:02.493Z,17.81
2019-06-08T23:26:32.204Z,17.78
2019-06-08T23:29:02.337Z,17.78
2019-06-08T23:31:31.580Z,17.80
2019-06-08T23:34:03.893Z,17.81
2019-06-08T23:36:46.589Z,17.78
2019-06-08T23:39:03.128Z,17.75
2019-06-08T23:41:32.253Z,17.75
2019-06-08T23:44:01.495Z,17.76
2019-06-08T23:46:30.633Z,17.76
2019-06-08T23:49:01.898Z,17.75
2019-06-08T23:51:30.723Z,17.73
2019-06-08T23:54:02.321Z,17.68
2019-06-08T23:56:30.725Z,17.71
2019-06-08T23:59:01.311Z,17.73
